Time;durP1;ratioP1;P1;durP2;ratioP2;P2;SDS_P1;SDS_P2;PMS_P1;PMS_P2;Temp;Humidity;BMP_temperature;BMP_pressure;BME280_temperature;BME280_humidity;BME280_pressure;Samples;Min_cycle;Max_cycle;Signal;HPM_P1;HPM_P2
2021/03/18 00:00:26;;;;;;;12.57;2.80;;;3.80;71.10;;;;;;5099971;28;20428;-73
2021/03/18 00:02:51;;;;;;;4.50;3.00;;;3.80;71.20;;;;;;5100178;28;20469;-73
2021/03/18 00:05:17;;;;;;;4.70;2.33;;;3.80;70.20;;;;;;5099915;28;20032;-73
2021/03/18 00:07:43;;;;;;;4.25;2.80;;;3.80;70.20;;;;;;5099904;28;20315;-73
2021/03/18 00:10:09;;;;;;;5.38;3.10;;;3.60;70.90;;;;;;5100124;28;20035;-73
2021/03/18 00:12:35;;;;;;;6.25;3.28;;;3.50;71.80;;;;;;5099797;28;20063;-73
2021/03/18 00:15:11;;;;;;;6.43;3.60;;;3.30;72.30;;;;;;5100286;28;20055;-73
2021/03/18 00:17:37;;;;;;;5.22;3.17;;;3.10;72.80;;;;;;5099680;28;20106;-73
2021/03/18 00:20:07;;;;;;;4.78;3.10;;;3.10;73.10;;;;;;5099612;28;20066;-73
2021/03/18 00:22:32;;;;;;;7.07;3.92;;;3.00;72.80;;;;;;5099793;28;20051;-73
2021/03/18 00:24:58;;;;;;;6.75;4.22;;;3.00;73.00;;;;;;5099357;28;20040;-73
2021/03/18 00:27:24;;;;;;;10.50;6.50;;;2.90;73.20;;;;;;5099528;28;20020;-73
2021/03/18 00:29:49;;;;;;;13.00;6.05;;;2.80;73.40;;;;;;5099395;28;20473;-73
2021/03/18 00:32:15;;;;;;;9.60;5.32;;;2.70;73.70;;;;;;5099379;28;20443;-73
2021/03/18 00:34:40;;;;;;;6.05;4.32;;;2.70;74.10;;;;;;5099578;28;20024;-73
2021/03/18 00:37:06;;;;;;;4.70;3.50;;;2.60;74.30;;;;;;5099481;28;20012;-73
2021/03/18 00:39:32;;;;;;;9.63;4.22;;;2.60;74.60;;;;;;5099272;28;20031;-73
2021/03/18 00:41:57;;;;;;;9.05;4.95;;;2.60;75.00;;;;;;5099495;28;20111;-73
2021/03/18 00:44:23;;;;;;;9.52;4.68;;;2.70;75.20;;;;;;5099340;28;20048;-73
2021/03/18 00:46:49;;;;;;;8.43;4.38;;;2.80;75.30;;;;;;5081231;28;20384;-73
2021/03/18 00:49:14;;;;;;;6.78;3.40;;;3.00;75.20;;;;;;5099054;28;20055;-73
2021/03/18 00:51:40;;;;;;;11.30;4.47;;;3.00;75.10;;;;;;5099266;28;20150;-73
2021/03/18 00:54:06;;;;;;;5.18;2.30;;;3.10;74.60;;;;;;5099335;28;20149;-73
2021/03/18 00:56:32;;;;;;;3.85;2.17;;;3.20;74.10;;;;;;5099123;28;20383;-73
2021/03/18 00:58:58;;;;;;;3.67;2.22;;;3.30;72.90;;;;;;5098879;28;20093;-73
2021/03/18 01:01:25;;;;;;;4.30;1.77;;;3.40;72.70;;;;;;5098865;28;20030;-73
2021/03/18 01:03:51;;;;;;;3.55;1.90;;;3.40;72.60;;;;;;5098684;28;20365;-73
2021/03/18 01:06:21;;;;;;;3.05;1.80;;;3.40;72.70;;;;;;5099006;28;20020;-73
2021/03/18 01:08:47;;;;;;;8.52;2.13;;;3.30;73.10;;;;;;5098728;28;20077;-73
2021/03/18 01:11:15;;;;;;;3.55;1.92;;;3.20;73.50;;;;;;5080752;28;20024;-73
2021/03/18 01:13:44;;;;;;;2.70;1.90;;;3.10;73.60;;;;;;5098810;28;20114;-73
2021/03/18 01:16:22;;;;;;;5.68;1.63;;;2.90;74.00;;;;;;5098481;28;20024;-73
2021/03/18 01:18:58;;;;;;;3.22;1.90;;;2.80;74.80;;;;;;5080585;28;20056;-72
2021/03/18 01:21:28;;;;;;;4.95;2.15;;;2.70;75.30;;;;;;5098541;28;20078;-73
2021/03/18 01:23:53;;;;;;;5.88;2.22;;;2.60;75.60;;;;;;5080161;28;20052;-73
2021/03/18 01:26:19;;;;;;;2.30;1.42;;;2.50;76.10;;;;;;5080407;28;20074;-73
2021/03/18 01:28:45;;;;;;;3.40;1.92;;;2.50;77.20;;;;;;5097749;28;20028;-73
2021/03/18 01:31:12;;;;;;;2.67;1.92;;;2.50;78.20;;;;;;5098490;28;20063;-73
2021/03/18 01:33:39;;;;;;;2.88;1.70;;;2.50;78.20;;;;;;5098083;28;20408;-73
2021/03/18 01:36:07;;;;;;;6.55;2.20;;;2.50;78.10;;;;;;5098053;28;20020;-73
2021/03/18 01:38:34;;;;;;;2.53;1.52;;;2.40;77.20;;;;;;5098390;28;20077;-73
2021/03/18 01:41:00;;;;;;;2.10;1.70;;;2.20;77.00;;;;;;5098083;28;20371;-73
2021/03/18 01:43:26;;;;;;;1.92;1.55;;;2.00;77.70;;;;;;5097902;28;20027;-72
2021/03/18 01:45:52;;;;;;;3.20;1.77;;;1.80;79.00;;;;;;5098214;28;20024;-72
2021/03/18 01:48:18;;;;;;;2.50;1.98;;;1.70;78.90;;;;;;5079995;28;20028;-72
2021/03/18 01:50:44;;;;;;;5.60;2.00;;;1.60;79.50;;;;;;5079953;28;20020;-72
2021/03/18 01:53:10;;;;;;;1.98;1.63;;;1.50;79.50;;;;;;5098002;28;20277;-72
2021/03/18 01:55:42;;;;;;;2.00;1.48;;;1.40;79.80;;;;;;5097917;28;20085;-73
2021/03/18 01:58:10;;;;;;;3.65;2.00;;;1.30;80.80;;;;;;5097922;28;20104;-72
2021/03/18 02:00:38;;;;;;;2.83;1.90;;;1.20;81.10;;;;;;5097699;28;20028;-72
2021/03/18 02:03:04;;;;;;;2.42;1.70;;;1.10;82.50;;;;;;5097619;28;20067;-72
2021/03/18 02:05:30;;;;;;;3.03;1.92;;;1.20;83.40;;;;;;5097596;28;20347;-73
2021/03/18 02:07:57;;;;;;;4.75;1.70;;;1.30;83.20;;;;;;5097758;28;20031;-72
2021/03/18 02:10:25;;;;;;;3.10;2.08;;;1.40;83.00;;;;;;5079542;28;20103;-72
2021/03/18 02:12:51;;;;;;;3.13;2.55;;;1.50;83.00;;;;;;5097733;28;20024;-73
2021/03/18 02:15:21;;;;;;;1.95;1.65;;;1.60;82.80;;;;;;5097652;28;20053;-72
2021/03/18 02:18:14;;;;;;;1.90;1.55;;;1.80;82.30;;;;;;5097268;28;20103;-72
2021/03/18 02:20:53;;;;;;;2.80;1.73;;;1.90;82.10;;;;;;5097431;28;20020;-72
2021/03/18 02:24:07;;;;;;;3.08;1.73;;;1.90;81.60;;;;;;5097260;28;20059;-72
2021/03/18 02:26:38;;;;;;;3.80;2.10;;;1.90;81.50;;;;;;5021220;28;20036;-72
2021/03/18 02:29:16;;;;;;;3.30;1.58;;;2.00;81.50;;;;;;5097247;28;20384;-73
2021/03/18 02:31:47;;;;;;;4.60;1.45;;;1.90;81.50;;;;;;5097535;28;20016;-72
2021/03/18 02:34:27;;;;;;;3.22;1.80;;;1.90;81.90;;;;;;5097040;28;20024;-73
2021/03/18 02:37:12;;;;;;;2.80;1.95;;;1.90;82.10;;;;;;5097335;28;20032;-73
2021/03/18 02:39:45;;;;;;;4.75;1.80;;;2.00;81.90;;;;;;5096643;28;20028;-73
2021/03/18 02:42:18;;;;;;;2.33;1.60;;;1.90;81.50;;;;;;5097309;28;20024;-73
2021/03/18 02:44:45;;;;;;;2.67;1.92;;;1.90;81.60;;;;;;5096985;28;20107;-72
2021/03/18 02:47:12;;;;;;;2.90;1.70;;;1.70;81.40;;;;;;5097123;28;20028;-73
2021/03/18 02:49:42;;;;;;;1.67;1.20;;;1.60;80.40;;;;;;5097200;28;20050;-73
2021/03/18 02:52:10;;;;;;;2.88;1.70;;;1.50;80.50;;;;;;5096854;28;20452;-73
2021/03/18 02:54:38;;;;;;;2.97;1.40;;;1.30;80.30;;;;;;5078962;28;20043;-73
2021/03/18 02:57:08;;;;;;;2.72;1.48;;;1.30;80.60;;;;;;5097122;28;20020;-73
2021/03/18 02:59:37;;;;;;;4.28;1.90;;;1.20;81.50;;;;;;5097179;28;20095;-73
2021/03/18 03:02:11;;;;;;;2.10;1.58;;;1.20;81.00;;;;;;5097086;28;20024;-72
2021/03/18 03:04:39;;;;;;;4.13;1.70;;;1.10;81.40;;;;;;5096776;28;20024;-73
2021/03/18 03:07:07;;;;;;;3.30;1.70;;;1.00;81.40;;;;;;5097058;28;20050;-73
2021/03/18 03:09:34;;;;;;;2.47;1.70;;;1.00;82.90;;;;;;5096762;28;20027;-73
2021/03/18 03:12:01;;;;;;;2.80;1.63;;;1.00;83.70;;;;;;5096686;28;20035;-73
2021/03/18 03:14:30;;;;;;;1.67;1.42;;;1.10;83.30;;;;;;5096549;28;20036;-72
2021/03/18 03:16:56;;;;;;;2.42;1.67;;;1.20;83.10;;;;;;5096651;28;20180;-73
2021/03/18 03:19:22;;;;;;;3.75;1.90;;;1.30;83.40;;;;;;5096627;28;20028;-73
2021/03/18 03:21:50;;;;;;;3.17;2.03;;;1.40;82.30;;;;;;5078765;28;20020;-72
2021/03/18 03:24:17;;;;;;;3.35;1.73;;;1.50;81.70;;;;;;5096407;28;20137;-73
2021/03/18 03:26:44;;;;;;;3.53;1.92;;;1.60;79.50;;;;;;5096527;28;20028;-73
2021/03/18 03:29:10;;;;;;;1.95;1.60;;;1.50;79.90;;;;;;5096820;28;20086;-73
2021/03/18 03:31:36;;;;;;;2.35;1.70;;;1.50;79.30;;;;;;5096524;28;20043;-73
2021/03/18 03:34:04;;;;;;;2.67;1.60;;;1.50;79.00;;;;;;5096413;28;20074;-73
2021/03/18 03:36:31;;;;;;;2.70;1.75;;;1.40;79.70;;;;;;5096674;28;20024;-73
2021/03/18 03:38:57;;;;;;;2.58;1.65;;;1.40;80.20;;;;;;5096501;28;20024;-73
2021/03/18 03:41:23;;;;;;;2.90;1.90;;;1.40;80.60;;;;;;5096439;28;20107;-73
2021/03/18 03:43:49;;;;;;;2.90;2.03;;;1.30;79.90;;;;;;5096514;28;20112;-73
2021/03/18 03:46:15;;;;;;;2.67;1.92;;;1.20;80.70;;;;;;5096395;28;20031;-72
2021/03/18 03:48:41;;;;;;;1.95;1.60;;;1.20;79.90;;;;;;5096336;28;20028;-73
2021/03/18 03:51:06;;;;;;;2.75;1.73;;;1.10;80.10;;;;;;5096622;28;20028;-72
2021/03/18 03:53:39;;;;;;;2.28;1.50;;;1.10;78.70;;;;;;5082100;28;20373;-73
2021/03/18 03:56:40;;;;;;;2.30;2.03;;;1.10;77.30;;;;;;5100348;28;20040;-72
2021/03/18 03:59:18;;;;;;;2.80;1.85;;;1.10;76.70;;;;;;5092932;28;20063;-72
2021/03/18 04:01:47;;;;;;;2.70;1.65;;;1.10;77.20;;;;;;5100341;28;20016;-73
2021/03/18 04:04:18;;;;;;;3.08;1.55;;;1.20;76.60;;;;;;5100192;28;20032;-73
2021/03/18 04:06:44;;;;;;;2.40;1.63;;;1.10;78.60;;;;;;5100007;28;20028;-73
2021/03/18 04:09:16;;;;;;;2.25;1.42;;;1.10;79.70;;;;;;5081949;28;20080;-73
2021/03/18 04:11:42;;;;;;;2.67;1.50;;;1.10;80.80;;;;;;5099938;28;20072;-73
2021/03/18 04:14:11;;;;;;;3.03;1.58;;;1.20;80.20;;;;;;5099968;28;20373;-73
2021/03/18 04:16:41;;;;;;;2.13;1.67;;;1.20;78.80;;;;;;5100376;28;20509;-73
2021/03/18 04:19:09;;;;;;;2.97;1.50;;;1.10;77.40;;;;;;5099654;28;20028;-72
2021/03/18 04:21:40;;;;;;;3.55;1.90;;;1.00;76.20;;;;;;5099611;28;20107;-73
2021/03/18 04:24:07;;;;;;;3.05;1.50;;;1.00;76.90;;;;;;5099361;28;20481;-73
2021/03/18 04:26:34;;;;;;;2.75;1.13;;;1.00;75.30;;;;;;5099556;28;20096;-72
2021/03/18 04:29:04;;;;;;;1.75;1.05;;;1.00;72.10;;;;;;5081597;28;20114;-73
2021/03/18 04:31:31;;;;;;;1.70;1.17;;;1.00;71.00;;;;;;5099702;28;20028;-72
2021/03/18 04:33:58;;;;;;;1.27;0.73;;;1.00;71.20;;;;;;5099425;28;20039;-73
2021/03/18 04:36:24;;;;;;;1.38;1.05;;;1.10;70.70;;;;;;5081342;28;20074;-72
2021/03/18 04:38:51;;;;;;;4.00;1.17;;;1.20;70.80;;;;;;5081418;28;20024;-73
2021/03/18 04:41:17;;;;;;;1.95;1.20;;;1.20;70.90;;;;;;5099244;28;20023;-72
2021/03/18 04:43:44;;;;;;;2.35;0.98;;;1.30;69.80;;;;;;5099173;28;20471;-72
2021/03/18 04:46:10;;;;;;;1.00;0.70;;;1.30;66.40;;;;;;5099167;28;20028;-72
2021/03/18 04:48:38;;;;;;;1.55;0.70;;;1.30;64.80;;;;;;5099319;28;20410;-72
2021/03/18 04:51:10;;;;;;;3.15;1.63;;;1.40;64.40;;;;;;5099084;28;20020;-73
2021/03/18 04:53:37;;;;;;;1.40;0.82;;;1.40;65.50;;;;;;5099293;28;20036;-72
2021/03/18 04:56:07;;;;;;;1.80;0.90;;;1.40;65.40;;;;;;5098903;28;20427;-72
2021/03/18 04:58:35;;;;;;;1.55;0.63;;;1.40;66.90;;;;;;5099126;28;20025;-73
2021/03/18 05:01:02;;;;;;;1.30;0.80;;;1.40;66.70;;;;;;5098914;28;20016;-72
2021/03/18 05:03:29;;;;;;;0.85;0.57;;;1.50;66.70;;;;;;5098108;28;20032;-73
2021/03/18 05:05:57;;;;;;;1.77;0.80;;;1.40;66.00;;;;;;5099074;28;20020;-73
2021/03/18 05:08:24;;;;;;;2.13;1.10;;;1.40;66.40;;;;;;5098931;28;20024;-73
2021/03/18 05:10:50;;;;;;;3.08;0.90;;;1.40;66.70;;;;;;5098699;28;20020;-72
2021/03/18 05:13:17;;;;;;;1.42;0.98;;;1.50;67.20;;;;;;5098574;28;20024;-72
2021/03/18 05:15:44;;;;;;;1.90;0.80;;;1.50;67.60;;;;;;5080821;28;20366;-72
2021/03/18 05:18:13;;;;;;;2.83;0.90;;;1.50;67.50;;;;;;5080655;28;20050;-73
2021/03/18 05:20:41;;;;;;;1.27;0.70;;;1.50;67.90;;;;;;5098738;28;20051;-72
2021/03/18 05:23:08;;;;;;;1.80;0.82;;;1.50;67.80;;;;;;5098084;28;20378;-73
2021/03/18 05:25:34;;;;;;;1.60;1.20;;;1.50;68.10;;;;;;5080446;28;20055;-73
2021/03/18 05:28:01;;;;;;;4.20;0.90;;;1.50;68.30;;;;;;5098573;28;20020;-73
2021/03/18 05:30:28;;;;;;;6.55;1.10;;;1.50;68.60;;;;;;5098543;28;20031;-73
2021/03/18 05:32:58;;;;;;;1.10;0.70;;;1.50;69.00;;;;;;5098130;28;20031;-73
2021/03/18 05:35:25;;;;;;;3.08;0.98;;;1.60;68.40;;;;;;5098298;28;20051;-73
2021/03/18 05:37:50;;;;;;;6.05;0.88;;;1.60;69.20;;;;;;5098058;28;20024;-73
2021/03/18 05:40:17;;;;;;;22.83;1.65;;;1.60;69.90;;;;;;5098076;28;20107;-72
2021/03/18 05:42:43;;;;;;;18.38;1.40;;;1.40;69.60;;;;;;5098019;28;20016;-73
2021/03/18 05:45:12;;;;;;;1.10;0.90;;;1.40;69.70;;;;;;5098242;28;20051;-72
2021/03/18 05:47:38;;;;;;;1.60;0.75;;;1.50;66.70;;;;;;5097986;28;20323;-72
2021/03/18 05:50:10;;;;;;;1.70;0.80;;;1.50;66.30;;;;;;5097933;28;20028;-73
2021/03/18 05:52:37;;;;;;;2.20;0.70;;;1.60;66.90;;;;;;5097894;28;20031;-72
2021/03/18 05:55:04;;;;;;;0.75;0.40;;;1.70;67.80;;;;;;5097856;28;20327;-73
2021/03/18 05:57:31;;;;;;;1.88;0.60;;;1.80;67.00;;;;;;5098032;28;20331;-72
2021/03/18 05:59:57;;;;;;;1.80;0.90;;;2.00;66.10;;;;;;5080024;28;20327;-72
2021/03/18 06:02:22;;;;;;;1.15;0.60;;;2.10;66.60;;;;;;5097985;28;20024;-73
2021/03/18 06:04:48;;;;;;;2.10;0.98;;;2.30;66.10;;;;;;5097597;28;20035;-72
2021/03/18 06:07:14;;;;;;;2.20;1.00;;;2.40;65.80;;;;;;5079635;28;20308;-72
2021/03/18 06:09:40;;;;;;;1.00;0.75;;;2.60;64.30;;;;;;5098124;28;20446;-72
2021/03/18 06:12:06;;;;;;;1.73;1.00;;;2.70;64.70;;;;;;5097795;28;20028;-72
2021/03/18 06:14:33;;;;;;;2.70;1.40;;;2.80;64.90;;;;;;5097582;28;20048;-73
2021/03/18 06:16:59;;;;;;;4.60;1.27;;;2.90;65.10;;;;;;5097389;28;20024;-72
2021/03/18 06:19:25;;;;;;;4.38;1.40;;;3.00;64.70;;;;;;5097442;28;20108;-73
2021/03/18 06:21:54;;;;;;;2.03;0.85;;;3.20;63.10;;;;;;5097309;28;20020;-73
2021/03/18 06:24:21;;;;;;;1.50;0.80;;;3.30;62.10;;;;;;5097169;28;20508;-73
2021/03/18 06:26:47;;;;;;;3.50;1.10;;;3.50;59.40;;;;;;5097271;28;20032;-73
2021/03/18 06:29:30;;;;;;;3.05;1.17;;;3.60;58.30;;;;;;5097546;28;20039;-73
2021/03/18 06:31:59;;;;;;;3.30;1.52;;;3.80;59.30;;;;;;5079257;28;20043;-73
2021/03/18 06:34:51;;;;;;;0.88;0.60;;;3.80;58.30;;;;;;5079154;28;20028;-73
2021/03/18 06:37:34;;;;;;;1.42;0.70;;;3.90;57.30;;;;;;5097345;28;20051;-73
2021/03/18 06:40:12;;;;;;;1.38;0.65;;;4.00;58.40;;;;;;5097692;28;20078;-73
2021/03/18 06:42:41;;;;;;;1.58;0.70;;;4.00;57.70;;;;;;5097315;28;20073;-73
2021/03/18 06:45:10;;;;;;;1.27;0.82;;;4.10;58.60;;;;;;5096901;28;20052;-73
2021/03/18 06:47:43;;;;;;;4.20;0.80;;;4.20;59.90;;;;;;5097096;28;20118;-73
2021/03/18 06:50:10;;;;;;;3.45;0.93;;;4.20;60.10;;;;;;5097212;28;20052;-73
2021/03/18 06:52:37;;;;;;;2.85;0.80;;;4.30;59.10;;;;;;5096777;28;20031;-73
2021/03/18 06:55:04;;;;;;;1.38;0.80;;;4.40;58.90;;;;;;5096871;28;20062;-73
2021/03/18 06:57:30;;;;;;;1.33;0.80;;;4.40;57.90;;;;;;5096730;28;20017;-73
2021/03/18 06:59:55;;;;;;;1.92;0.70;;;4.50;58.60;;;;;;5096878;28;20032;-73
2021/03/18 07:02:21;;;;;;;4.60;1.38;;;4.70;57.70;;;;;;5078959;28;20289;-73
2021/03/18 07:04:49;;;;;;;1.48;0.93;;;4.90;56.70;;;;;;5096802;28;20301;-73
2021/03/18 07:07:17;;;;;;;1.20;0.70;;;4.90;59.30;;;;;;5097089;28;20028;-73
2021/03/18 07:09:45;;;;;;;1.65;0.70;;;5.00;56.80;;;;;;5096810;28;20024;-73
2021/03/18 07:12:13;;;;;;;2.17;0.95;;;5.10;58.30;;;;;;5096718;28;20028;-73
2021/03/18 07:14:44;;;;;;;1.13;0.75;;;5.10;58.70;;;;;;5096688;28;20439;-73
2021/03/18 07:17:26;;;;;;;1.48;0.75;;;5.00;59.00;;;;;;5096611;28;20103;-73
2021/03/18 07:20:33;;;;;;;1.33;0.70;;;4.90;60.10;;;;;;5096701;28;20024;-73
2021/03/18 07:22:59;;;;;;;3.13;1.48;;;4.90;59.10;;;;;;5091556;28;20438;-73
2021/03/18 07:25:28;;;;;;;1.50;1.00;;;4.80;60.00;;;;;;5096659;28;20024;-73
2021/03/18 07:27:58;;;;;;;5.15;1.10;;;4.80;62.20;;;;;;5100089;28;20035;-73
2021/03/18 07:30:32;;;;;;;1.85;1.08;;;4.60;64.80;;;;;;5100951;28;20315;-73
2021/03/18 07:32:59;;;;;;;3.05;1.13;;;4.50;64.30;;;;;;5100665;28;20099;-73
2021/03/18 07:35:26;;;;;;;2.72;0.95;;;4.30;63.80;;;;;;5100577;28;20028;-73
2021/03/18 07:37:52;;;;;;;1.88;0.93;;;4.30;63.80;;;;;;5100484;28;20052;-73
2021/03/18 07:40:19;;;;;;;1.58;1.20;;;4.30;63.70;;;;;;5082472;28;20043;-73
2021/03/18 07:42:47;;;;;;;1.85;1.20;;;4.40;62.50;;;;;;5100693;28;20051;-73
2021/03/18 07:45:18;;;;;;;2.58;1.25;;;4.60;60.90;;;;;;5100309;28;20024;-73
2021/03/18 07:47:45;;;;;;;2.50;1.10;;;4.80;62.30;;;;;;5082332;28;20016;-73
2021/03/18 07:50:12;;;;;;;3.35;1.30;;;4.90;61.80;;;;;;5100418;28;20028;-73
2021/03/18 07:52:42;;;;;;;4.60;1.38;;;5.00;60.40;;;;;;5100135;28;20024;-73
2021/03/18 07:55:11;;;;;;;1.50;0.98;;;5.00;60.80;;;;;;5082129;28;20380;-73
2021/03/18 07:57:44;;;;;;;2.40;1.30;;;5.00;61.50;;;;;;5100334;28;20028;-73
2021/03/18 08:00:12;;;;;;;1.65;1.08;;;5.10;62.00;;;;;;5100171;28;20025;-73
2021/03/18 08:02:37;;;;;;;2.97;1.25;;;5.30;60.00;;;;;;5100126;28;20081;-73
2021/03/18 08:05:04;;;;;;;1.75;1.00;;;5.60;60.00;;;;;;5099963;28;20352;-73
2021/03/18 08:07:47;;;;;;;2.08;1.10;;;5.90;60.30;;;;;;5099891;28;20031;-73
2021/03/18 08:10:22;;;;;;;4.90;1.42;;;6.40;58.50;;;;;;5100237;28;20024;-73
2021/03/18 08:12:56;;;;;;;2.20;1.30;;;6.90;58.90;;;;;;5100039;28;20034;-73
2021/03/18 08:15:29;;;;;;;2.92;0.73;;;7.80;57.20;;;;;;5099819;28;20462;-73
2021/03/18 08:17:56;;;;;;;2.17;1.10;;;9.00;54.00;;;;;;5099775;28;20026;-73
2021/03/18 08:20:40;;;;;;;1.77;1.00;;;9.90;51.20;;;;;;5099832;28;20099;-74
2021/03/18 08:23:27;;;;;;;3.15;1.00;;;10.60;50.30;;;;;;5099430;28;20040;-74
2021/03/18 08:25:57;;;;;;;1.00;0.70;;;11.40;48.40;;;;;;5099836;28;20153;-74
2021/03/18 08:28:55;;;;;;;2.10;1.20;;;11.50;47.50;;;;;;5081586;28;20043;-73
2021/03/18 08:31:23;;;;;;;2.10;1.10;;;10.90;47.40;;;;;;5100028;28;20051;-74
2021/03/18 08:33:51;;;;;;;1.80;1.13;;;10.50;48.60;;;;;;5081441;28;20024;-73
2021/03/18 08:36:23;;;;;;;3.15;1.20;;;9.70;51.10;;;;;;5099577;28;20032;-73
2021/03/18 08:38:52;;;;;;;2.63;1.23;;;9.00;52.40;;;;;;5098084;28;20048;-73
2021/03/18 08:41:31;;;;;;;2.45;1.30;;;8.20;55.10;;;;;;5099422;28;20380;-73
2021/03/18 08:44:18;;;;;;;4.03;1.40;;;7.50;55.20;;;;;;5099337;28;20028;-73
2021/03/18 08:46:48;;;;;;;;;;;7.10;54.70;;;;;;5099747;28;20032;-73
2021/03/18 08:49:26;;;;;;;2.10;1.17;;;6.80;57.60;;;;;;5099230;28;19904;-73
2021/03/18 08:51:53;;;;;;;1.88;1.48;;;6.50;57.90;;;;;;5099215;28;20051;-73
2021/03/18 08:54:44;;;;;;;2.38;1.45;;;6.20;58.60;;;;;;5099461;28;20098;-73
2021/03/18 08:57:20;;;;;;;2.70;1.42;;;6.20;59.20;;;;;;5069758;28;20363;-73
2021/03/18 08:59:48;;;;;;;2.22;1.38;;;6.10;59.00;;;;;;5081028;28;20046;-73
2021/03/18 09:02:16;;;;;;;2.13;1.30;;;5.90;60.30;;;;;;5080925;28;20484;-73
2021/03/18 09:04:47;;;;;;;3.97;1.75;;;5.90;60.60;;;;;;5098827;28;20020;-73
2021/03/18 09:07:21;;;;;;;2.28;1.60;;;5.80;61.20;;;;;;5080871;28;20019;-73
2021/03/18 09:09:58;;;;;;;2.88;1.42;;;5.80;60.90;;;;;;5080887;28;20028;-73
2021/03/18 09:12:24;;;;;;;2.83;1.40;;;5.90;60.30;;;;;;5098713;28;20024;-73
2021/03/18 09:14:50;;;;;;;2.08;1.55;;;6.10;59.60;;;;;;5098567;28;20031;-73
2021/03/18 09:17:16;;;;;;;2.88;1.85;;;6.20;59.70;;;;;;5098779;28;20093;-73
2021/03/18 09:19:46;;;;;;;3.10;1.60;;;6.40;60.10;;;;;;5080594;28;20407;-73
2021/03/18 09:22:24;;;;;;;2.75;1.70;;;6.50;59.40;;;;;;5098412;28;20091;-73
2021/03/18 09:24:57;;;;;;;1.55;1.13;;;6.90;58.80;;;;;;5098367;28;20388;-73
2021/03/18 09:27:23;;;;;;;3.42;1.80;;;7.40;52.30;;;;;;5098437;28;20023;-73
2021/03/18 09:29:49;;;;;;;4.63;1.88;;;7.40;53.60;;;;;;5098352;28;20032;-73
2021/03/18 09:32:15;;;;;;;2.45;1.75;;;7.40;53.00;;;;;;5098314;28;20024;-73
2021/03/18 09:34:43;;;;;;;2.97;1.33;;;7.70;53.20;;;;;;5098156;28;20035;-73
2021/03/18 09:37:09;;;;;;;2.30;1.45;;;8.50;54.40;;;;;;5098101;28;20024;-73
2021/03/18 09:39:36;;;;;;;4.88;1.48;;;8.50;52.90;;;;;;5080208;28;20027;-73
2021/03/18 09:42:05;;;;;;;2.45;1.17;;;8.30;53.70;;;;;;5098167;28;20020;-73
2021/03/18 09:44:32;;;;;;;3.35;1.00;;;8.30;53.70;;;;;;5098150;28;20116;-73
2021/03/18 09:47:01;;;;;;;2.80;1.10;;;8.70;50.00;;;;;;5098030;28;20089;-73
2021/03/18 09:49:28;;;;;;;1.60;1.02;;;8.90;50.20;;;;;;5097559;28;20036;-72
2021/03/18 09:51:54;;;;;;;3.20;1.40;;;9.30;48.80;;;;;;5097942;28;20028;-73
2021/03/18 09:54:23;;;;;;;2.22;1.00;;;9.90;46.90;;;;;;5098228;28;20036;-73
2021/03/18 09:56:51;;;;;;;3.30;1.35;;;9.90;46.20;;;;;;5097781;28;20043;-73
2021/03/18 09:59:21;;;;;;;2.42;1.02;;;9.90;44.90;;;;;;5097848;28;20016;-73
2021/03/18 10:01:47;;;;;;;2.78;1.08;;;9.40;46.50;;;;;;5098060;28;20017;-73
2021/03/18 10:04:15;;;;;;;1.88;1.10;;;9.10;46.80;;;;;;5097690;28;20016;-73
2021/03/18 10:06:48;;;;;;;2.70;1.13;;;8.60;42.00;;;;;;5079736;28;20077;-73
2021/03/18 10:09:19;;;;;;;4.70;1.00;;;8.10;45.90;;;;;;5097671;28;20038;-73
2021/03/18 10:11:49;;;;;;;4.10;1.27;;;7.80;46.60;;;;;;5096395;28;20025;-73
2021/03/18 10:14:19;;;;;;;5.55;1.45;;;7.60;47.40;;;;;;5086830;28;20024;-73
2021/03/18 10:16:47;;;;;;;2.20;1.30;;;7.60;49.20;;;;;;5077808;28;20025;-73
2021/03/18 10:19:14;;;;;;;1.88;1.25;;;7.70;48.10;;;;;;5077266;28;20024;-73
2021/03/18 10:21:40;;;;;;;2.65;1.23;;;7.80;45.90;;;;;;5077144;28;20320;-73
2021/03/18 10:24:12;;;;;;;6.75;1.65;;;7.80;46.60;;;;;;5076907;28;20458;-73
2021/03/18 10:26:37;;;;;;;2.53;1.35;;;7.80;45.80;;;;;;5077203;28;20028;-73
2021/03/18 10:29:06;;;;;;;1.60;1.10;;;8.20;47.50;;;;;;5077274;28;20102;-73
2021/03/18 10:31:32;;;;;;;2.58;1.30;;;8.80;45.70;;;;;;5077241;28;20020;-73
2021/03/18 10:34:02;;;;;;;1.73;1.15;;;8.90;46.10;;;;;;5059382;28;20357;-73
2021/03/18 10:36:46;;;;;;;2.17;1.10;;;9.10;46.80;;;;;;5076836;28;20042;-73
2021/03/18 10:39:13;;;;;;;2.95;0.90;;;9.60;44.00;;;;;;5076954;28;20031;-73
2021/03/18 10:41:59;;;;;;;2.55;0.88;;;10.30;43.20;;;;;;5076944;28;20416;-74
2021/03/18 10:44:46;;;;;;;1.52;1.00;;;10.70;41.90;;;;;;5077081;28;20047;-72
2021/03/18 10:47:22;;;;;;;1.75;0.98;;;10.00;42.30;;;;;;5076905;28;20048;-73
2021/03/18 10:50:08;;;;;;;2.75;1.00;;;9.20;45.40;;;;;;5077152;28;20023;-73
2021/03/18 10:52:36;;;;;;;;;;;9.10;46.50;;;;;;5077181;28;20029;-73
2021/03/18 10:55:04;;;;;;;2.10;1.00;;;9.00;46.10;;;;;;5058885;28;20312;-73
2021/03/18 10:57:30;;;;;;;1.75;0.88;;;9.70;46.10;;;;;;5076868;28;20036;-73
2021/03/18 11:00:00;;;;;;;1.73;1.02;;;10.30;45.20;;;;;;5076880;28;20029;-74
2021/03/18 11:02:30;;;;;;;1.42;0.70;;;10.80;44.70;;;;;;5076061;28;20070;-74
2021/03/18 11:04:58;;;;;;;3.28;0.90;;;11.60;42.60;;;;;;5076777;28;20116;-74
2021/03/18 11:07:24;;;;;;;1.58;0.90;;;12.00;40.50;;;;;;5076862;28;20048;-74
2021/03/18 11:10:06;;;;;;;1.25;0.60;;;12.40;40.60;;;;;;5076595;28;20029;-74
2021/03/18 11:12:32;;;;;;;1.08;0.70;;;13.00;39.80;;;;;;5076558;28;20025;-74
2021/03/18 11:14:58;;;;;;;1.63;0.80;;;13.30;38.00;;;;;;5076573;28;20324;-74
2021/03/18 11:17:28;;;;;;;1.27;0.88;;;13.80;36.10;;;;;;5076445;28;20016;-74
2021/03/18 11:20:14;;;;;;;1.27;0.90;;;14.30;37.30;;;;;;5076609;28;20035;-71
2021/03/18 11:22:41;;;;;;;3.80;0.90;;;14.50;33.20;;;;;;5076351;28;20470;-72
2021/03/18 11:25:08;;;;;;;2.25;0.85;;;14.50;34.40;;;;;;5076241;28;20115;-73
2021/03/18 11:27:34;;;;;;;1.52;0.90;;;14.60;34.90;;;;;;5076196;28;20036;-72
2021/03/18 11:30:00;;;;;;;2.17;1.30;;;14.70;32.70;;;;;;5076356;28;20031;-71
2021/03/18 11:32:26;;;;;;;1.77;0.93;;;15.00;34.90;;;;;;5076347;28;20037;-72
2021/03/18 11:34:54;;;;;;;2.17;0.90;;;15.50;34.90;;;;;;5076677;28;20028;-71
2021/03/18 11:37:20;;;;;;;1.75;0.70;;;15.50;31.40;;;;;;5058413;28;20032;-72
2021/03/18 11:39:46;;;;;;;2.15;0.80;;;15.60;34.40;;;;;;5076329;28;20028;-72
2021/03/18 11:42:12;;;;;;;1.15;0.63;;;15.30;33.10;;;;;;5076495;28;20515;-72
2021/03/18 11:44:38;;;;;;;2.20;0.70;;;13.70;31.50;;;;;;5076204;28;20538;-72
2021/03/18 11:47:12;;;;;;;1.45;1.10;;;12.90;34.70;;;;;;5076451;28;20035;-72
2021/03/18 11:49:39;;;;;;;1.92;1.00;;;12.90;33.80;;;;;;5076434;28;20025;-71
2021/03/18 11:52:07;;;;;;;1.40;0.80;;;12.90;33.90;;;;;;5076129;28;20400;-72
2021/03/18 11:54:35;;;;;;;2.17;1.20;;;13.30;34.70;;;;;;5076079;28;20036;-73
2021/03/18 11:57:01;;;;;;;1.35;0.88;;;14.10;32.90;;;;;;5076044;28;20037;-72
2021/03/18 11:59:27;;;;;;;1.35;0.80;;;14.50;33.60;;;;;;5076090;28;20017;-72
2021/03/18 12:01:53;;;;;;;1.30;0.80;;;14.70;33.20;;;;;;5076112;28;20021;-71
2021/03/18 12:04:19;;;;;;;1.00;0.65;;;14.80;33.60;;;;;;5075937;28;20442;-72
2021/03/18 12:06:45;;;;;;;1.27;0.80;;;14.80;32.60;;;;;;5076062;28;20075;-72
2021/03/18 12:09:11;;;;;;;0.90;0.63;;;14.60;34.50;;;;;;5076307;28;20033;-72
2021/03/18 12:11:37;;;;;;;1.15;0.80;;;14.60;31.70;;;;;;5076001;28;20107;-71
2021/03/18 12:14:03;;;;;;;1.23;0.75;;;14.80;31.80;;;;;;5078838;28;20021;-71
2021/03/18 12:16:29;;;;;;;1.77;0.88;;;14.50;30.80;;;;;;5079663;28;20320;-72
2021/03/18 12:18:54;;;;;;;2.13;1.00;;;13.70;33.90;;;;;;5079508;28;20024;-71
2021/03/18 12:21:20;;;;;;;3.03;0.70;;;13.20;35.10;;;;;;5079440;28;20020;-73
2021/03/18 12:23:46;;;;;;;1.70;0.75;;;13.10;34.70;;;;;;5079067;28;20044;-73
2021/03/18 12:26:12;;;;;;;1.95;0.82;;;13.10;34.30;;;;;;5079295;28;20028;-72
2021/03/18 12:28:37;;;;;;;1.00;0.63;;;12.30;34.00;;;;;;5079292;28;20021;-72
2021/03/18 12:31:03;;;;;;;3.22;0.60;;;11.50;34.10;;;;;;5079532;28;20029;-72
2021/03/18 12:33:29;;;;;;;1.58;1.00;;;11.10;32.60;;;;;;5061381;28;20021;-72
2021/03/18 12:35:55;;;;;;;1.95;0.90;;;10.60;34.50;;;;;;5079175;28;20151;-73
2021/03/18 12:38:21;;;;;;;1.60;0.77;;;10.20;35.90;;;;;;5079400;28;20025;-74
2021/03/18 12:40:52;;;;;;;3.47;0.82;;;9.80;34.30;;;;;;5079366;28;20318;-72
2021/03/18 12:43:19;;;;;;;2.78;0.80;;;9.30;34.90;;;;;;5079004;28;20103;-72
2021/03/18 12:45:45;;;;;;;1.40;0.90;;;8.90;36.50;;;;;;5079289;28;20476;-74
2021/03/18 12:48:11;;;;;;;2.03;0.93;;;8.70;39.30;;;;;;5079211;28;20086;-72
2021/03/18 12:50:38;;;;;;;1.00;0.80;;;8.60;37.10;;;;;;5079154;28;20315;-74
2021/03/18 12:53:03;;;;;;;1.45;1.08;;;8.50;38.00;;;;;;5079075;28;20033;-74
2021/03/18 12:55:29;;;;;;;1.50;0.70;;;8.50;37.70;;;;;;5078763;28;20116;-74
2021/03/18 12:57:56;;;;;;;1.42;0.77;;;8.40;37.60;;;;;;5078690;28;20039;-74
2021/03/18 13:00:25;;;;;;;1.73;1.00;;;8.40;36.50;;;;;;5079001;28;20309;-74
2021/03/18 13:02:51;;;;;;;1.00;0.68;;;8.40;37.50;;;;;;5078751;28;20447;-74
2021/03/18 13:05:17;;;;;;;1.02;0.70;;;8.50;37.20;;;;;;5078835;28;20051;-74